sensor_id;sensor_type;location;lat;lon;timestamp;P1;durP1;ratioP1;P2;durP2;ratioP2
68647;SDS011;55632;51.962;16.116;2023-06-22T00:02:59;14.88;;;11.70;;
68647;SDS011;55632;51.962;16.116;2023-06-22T00:08:03;17.73;;;13.32;;
68647;SDS011;55632;51.962;16.116;2023-06-22T00:13:07;14.60;;;13.15;;
68647;SDS011;55632;51.962;16.116;2023-06-22T00:18:09;13.57;;;11.98;;
68647;SDS011;55632;51.962;16.116;2023-06-22T00:23:11;13.10;;;11.65;;
68647;SDS011;55632;51.962;16.116;2023-06-22T00:28:12;13.40;;;12.10;;
68647;SDS011;55632;51.962;16.116;2023-06-22T00:33:13;17.75;;;15.90;;
68647;SDS011;55632;51.962;16.116;2023-06-22T00:38:14;13.63;;;12.23;;
68647;SDS011;55632;51.962;16.116;2023-06-22T00:43:16;17.25;;;15.55;;
68647;SDS011;55632;51.962;16.116;2023-06-22T00:48:17;18.42;;;16.50;;
68647;SDS011;55632;51.962;16.116;2023-06-22T00:53:18;19.08;;;16.80;;
68647;SDS011;55632;51.962;16.116;2023-06-22T00:58:19;20.25;;;18.15;;
68647;SDS011;55632;51.962;16.116;2023-06-22T01:03:22;20.35;;;18.25;;
68647;SDS011;55632;51.962;16.116;2023-06-22T01:19:01;21.70;;;16.15;;
68647;SDS011;55632;51.962;16.116;2023-06-22T01:24:27;17.67;;;15.18;;
68647;SDS011;55632;51.962;16.116;2023-06-22T01:29:32;22.58;;;15.38;;
68647;SDS011;55632;51.962;16.116;2023-06-22T01:34:35;21.70;;;14.65;;
68647;SDS011;55632;51.962;16.116;2023-06-22T01:39:37;14.88;;;12.45;;
68647;SDS011;55632;51.962;16.116;2023-06-22T01:44:39;14.13;;;10.18;;
68647;SDS011;55632;51.962;16.116;2023-06-22T01:49:43;13.68;;;12.05;;
68647;SDS011;55632;51.962;16.116;2023-06-22T01:54:44;14.68;;;13.10;;
68647;SDS011;55632;51.962;16.116;2023-06-22T02:05:24;12.38;;;10.93;;
68647;SDS011;55632;51.962;16.116;2023-06-22T02:10:29;15.35;;;11.10;;
68647;SDS011;55632;51.962;16.116;2023-06-22T02:15:31;15.77;;;14.25;;
68647;SDS011;55632;51.962;16.116;2023-06-22T02:20:35;18.02;;;15.70;;
68647;SDS011;55632;51.962;16.116;2023-06-22T02:25:37;20.58;;;16.73;;
68647;SDS011;55632;51.962;16.116;2023-06-22T02:30:38;15.75;;;14.18;;
68647;SDS011;55632;51.962;16.116;2023-06-22T02:35:41;15.90;;;14.27;;
68647;SDS011;55632;51.962;16.116;2023-06-22T02:40:46;15.57;;;13.93;;
68647;SDS011;55632;51.962;16.116;2023-06-22T02:45:51;20.85;;;16.10;;
68647;SDS011;55632;51.962;16.116;2023-06-22T02:50:52;20.90;;;18.52;;
68647;SDS011;55632;51.962;16.116;2023-06-22T02:55:54;23.08;;;19.30;;
68647;SDS011;55632;51.962;16.116;2023-06-22T03:00:55;24.75;;;22.13;;
68647;SDS011;55632;51.962;16.116;2023-06-22T03:05:56;20.83;;;17.17;;
68647;SDS011;55632;51.962;16.116;2023-06-22T03:10:58;18.42;;;16.13;;
68647;SDS011;55632;51.962;16.116;2023-06-22T03:15:59;18.23;;;13.73;;
68647;SDS011;55632;51.962;16.116;2023-06-22T03:21:00;15.60;;;12.23;;
68647;SDS011;55632;51.962;16.116;2023-06-22T03:26:02;22.63;;;17.90;;
68647;SDS011;55632;51.962;16.116;2023-06-22T03:31:04;19.25;;;15.80;;
68647;SDS011;55632;51.962;16.116;2023-06-22T03:36:07;21.17;;;16.77;;
68647;SDS011;55632;51.962;16.116;2023-06-22T03:41:09;26.83;;;23.38;;
68647;SDS011;55632;51.962;16.116;2023-06-22T03:46:10;38.20;;;29.92;;
68647;SDS011;55632;51.962;16.116;2023-06-22T03:51:11;36.83;;;32.17;;
68647;SDS011;55632;51.962;16.116;2023-06-22T03:56:12;35.58;;;28.52;;
68647;SDS011;55632;51.962;16.116;2023-06-22T04:01:13;25.27;;;22.58;;
68647;SDS011;55632;51.962;16.116;2023-06-22T04:06:14;31.63;;;23.77;;
68647;SDS011;55632;51.962;16.116;2023-06-22T04:11:14;26.58;;;23.67;;
68647;SDS011;55632;51.962;16.116;2023-06-22T04:16:15;40.20;;;33.60;;
68647;SDS011;55632;51.962;16.116;2023-06-22T04:21:16;28.35;;;23.25;;
68647;SDS011;55632;51.962;16.116;2023-06-22T04:26:17;24.73;;;20.50;;
68647;SDS011;55632;51.962;16.116;2023-06-22T04:31:18;25.65;;;20.95;;
68647;SDS011;55632;51.962;16.116;2023-06-22T04:36:19;26.10;;;21.70;;
68647;SDS011;55632;51.962;16.116;2023-06-22T04:41:21;25.08;;;19.83;;
68647;SDS011;55632;51.962;16.116;2023-06-22T04:46:23;47.65;;;21.83;;
68647;SDS011;55632;51.962;16.116;2023-06-22T04:51:25;24.73;;;19.25;;
68647;SDS011;55632;51.962;16.116;2023-06-22T04:56:29;25.88;;;19.80;;
68647;SDS011;55632;51.962;16.116;2023-06-22T05:01:31;23.88;;;19.95;;
68647;SDS011;55632;51.962;16.116;2023-06-22T05:06:31;22.45;;;19.55;;
68647;SDS011;55632;51.962;16.116;2023-06-22T05:11:32;21.80;;;18.50;;
68647;SDS011;55632;51.962;16.116;2023-06-22T05:16:33;21.63;;;19.52;;
68647;SDS011;55632;51.962;16.116;2023-06-22T05:21:34;19.73;;;17.73;;
68647;SDS011;55632;51.962;16.116;2023-06-22T05:26:35;21.30;;;19.17;;
68647;SDS011;55632;51.962;16.116;2023-06-22T05:31:36;18.48;;;15.65;;
68647;SDS011;55632;51.962;16.116;2023-06-22T05:36:37;16.15;;;13.82;;
68647;SDS011;55632;51.962;16.116;2023-06-22T05:41:38;12.23;;;10.88;;
68647;SDS011;55632;51.962;16.116;2023-06-22T05:46:42;13.50;;;10.20;;
68647;SDS011;55632;51.962;16.116;2023-06-22T05:51:48;10.13;;;9.05;;
68647;SDS011;55632;51.962;16.116;2023-06-22T05:56:49;12.90;;;8.18;;
68647;SDS011;55632;51.962;16.116;2023-06-22T06:01:50;10.88;;;7.53;;
68647;SDS011;55632;51.962;16.116;2023-06-22T06:06:51;11.18;;;7.45;;
68647;SDS011;55632;51.962;16.116;2023-06-22T06:11:52;9.38;;;7.55;;
68647;SDS011;55632;51.962;16.116;2023-06-22T06:16:52;9.88;;;7.53;;
68647;SDS011;55632;51.962;16.116;2023-06-22T06:21:53;9.82;;;7.75;;
68647;SDS011;55632;51.962;16.116;2023-06-22T06:26:54;11.65;;;9.00;;
68647;SDS011;55632;51.962;16.116;2023-06-22T06:32:02;10.20;;;8.37;;
68647;SDS011;55632;51.962;16.116;2023-06-22T06:37:03;11.15;;;10.00;;
68647;SDS011;55632;51.962;16.116;2023-06-22T06:42:04;10.65;;;9.13;;
68647;SDS011;55632;51.962;16.116;2023-06-22T06:47:11;9.52;;;8.18;;
68647;SDS011;55632;51.962;16.116;2023-06-22T06:52:17;10.20;;;8.90;;
68647;SDS011;55632;51.962;16.116;2023-06-22T06:57:19;11.75;;;8.50;;
68647;SDS011;55632;51.962;16.116;2023-06-22T07:02:20;10.20;;;9.15;;
68647;SDS011;55632;51.962;16.116;2023-06-22T07:07:22;12.60;;;7.85;;
68647;SDS011;55632;51.962;16.116;2023-06-22T07:12:25;13.10;;;8.00;;
68647;SDS011;55632;51.962;16.116;2023-06-22T07:17:25;10.77;;;8.73;;
68647;SDS011;55632;51.962;16.116;2023-06-22T07:22:26;10.00;;;8.25;;
68647;SDS011;55632;51.962;16.116;2023-06-22T07:27:27;11.27;;;8.25;;
68647;SDS011;55632;51.962;16.116;2023-06-22T07:32:27;9.40;;;7.03;;
68647;SDS011;55632;51.962;16.116;2023-06-22T07:37:31;11.00;;;8.18;;
68647;SDS011;55632;51.962;16.116;2023-06-22T07:42:33;8.07;;;6.88;;
68647;SDS011;55632;51.962;16.116;2023-06-22T07:47:34;7.55;;;6.75;;
68647;SDS011;55632;51.962;16.116;2023-06-22T07:52:40;8.13;;;6.20;;
68647;SDS011;55632;51.962;16.116;2023-06-22T07:57:56;7.05;;;5.78;;
68647;SDS011;55632;51.962;16.116;2023-06-22T08:02:57;8.52;;;6.40;;
68647;SDS011;55632;51.962;16.116;2023-06-22T08:08:00;9.75;;;5.70;;
68647;SDS011;55632;51.962;16.116;2023-06-22T08:13:00;6.97;;;5.65;;
68647;SDS011;55632;51.962;16.116;2023-06-22T08:18:01;7.63;;;5.22;;
68647;SDS011;55632;51.962;16.116;2023-06-22T08:23:02;5.95;;;4.38;;
68647;SDS011;55632;51.962;16.116;2023-06-22T08:28:09;4.60;;;3.58;;
68647;SDS011;55632;51.962;16.116;2023-06-22T08:33:10;5.00;;;4.40;;
68647;SDS011;55632;51.962;16.116;2023-06-22T08:38:13;5.18;;;3.75;;
68647;SDS011;55632;51.962;16.116;2023-06-22T08:43:15;4.95;;;4.18;;
68647;SDS011;55632;51.962;16.116;2023-06-22T08:48:17;5.50;;;3.60;;
68647;SDS011;55632;51.962;16.116;2023-06-22T08:53:18;5.90;;;3.40;;
68647;SDS011;55632;51.962;16.116;2023-06-22T08:58:21;3.42;;;3.13;;
68647;SDS011;55632;51.962;16.116;2023-06-22T09:03:27;4.22;;;3.75;;
68647;SDS011;55632;51.962;16.116;2023-06-22T09:08:34;3.95;;;3.13;;
68647;SDS011;55632;51.962;16.116;2023-06-22T09:13:35;4.82;;;3.25;;
68647;SDS011;55632;51.962;16.116;2023-06-22T09:18:38;3.72;;;2.85;;
68647;SDS011;55632;51.962;16.116;2023-06-22T09:23:43;6.85;;;3.28;;
68647;SDS011;55632;51.962;16.116;2023-06-22T09:28:43;3.85;;;3.13;;
68647;SDS011;55632;51.962;16.116;2023-06-22T09:33:44;3.80;;;3.25;;
68647;SDS011;55632;51.962;16.116;2023-06-22T09:38:47;6.35;;;2.97;;
68647;SDS011;55632;51.962;16.116;2023-06-22T09:43:55;3.35;;;2.83;;
68647;SDS011;55632;51.962;16.116;2023-06-22T09:48:56;6.90;;;3.58;;
68647;SDS011;55632;51.962;16.116;2023-06-22T09:53:57;4.15;;;3.28;;
68647;SDS011;55632;51.962;16.116;2023-06-22T09:58:58;5.13;;;3.13;;
68647;SDS011;55632;51.962;16.116;2023-06-22T10:03:59;4.97;;;3.38;;
68647;SDS011;55632;51.962;16.116;2023-06-22T10:09:00;3.97;;;3.00;;
68647;SDS011;55632;51.962;16.116;2023-06-22T10:14:06;3.88;;;3.30;;
68647;SDS011;55632;51.962;16.116;2023-06-22T10:19:06;6.82;;;3.00;;
68647;SDS011;55632;51.962;16.116;2023-06-22T10:24:07;8.02;;;3.33;;
68647;SDS011;55632;51.962;16.116;2023-06-22T10:29:08;3.45;;;2.95;;
68647;SDS011;55632;51.962;16.116;2023-06-22T10:34:12;4.07;;;2.75;;
68647;SDS011;55632;51.962;16.116;2023-06-22T10:39:13;4.18;;;3.08;;
68647;SDS011;55632;51.962;16.116;2023-06-22T10:44:13;3.20;;;2.88;;
68647;SDS011;55632;51.962;16.116;2023-06-22T10:49:14;2.50;;;2.30;;
68647;SDS011;55632;51.962;16.116;2023-06-22T10:54:15;2.97;;;2.60;;
68647;SDS011;55632;51.962;16.116;2023-06-22T10:59:21;9.27;;;2.80;;
68647;SDS011;55632;51.962;16.116;2023-06-22T11:04:24;7.22;;;2.90;;
68647;SDS011;55632;51.962;16.116;2023-06-22T11:09:28;3.60;;;2.42;;
68647;SDS011;55632;51.962;16.116;2023-06-22T11:14:29;3.10;;;2.80;;
68647;SDS011;55632;51.962;16.116;2023-06-22T11:19:30;3.53;;;2.75;;
68647;SDS011;55632;51.962;16.116;2023-06-22T11:24:33;3.10;;;2.40;;
68647;SDS011;55632;51.962;16.116;2023-06-22T11:29:37;3.53;;;2.58;;
68647;SDS011;55632;51.962;16.116;2023-06-22T11:34:41;4.70;;;2.90;;
68647;SDS011;55632;51.962;16.116;2023-06-22T11:39:42;2.97;;;2.70;;
68647;SDS011;55632;51.962;16.116;2023-06-22T11:44:44;3.85;;;3.00;;
68647;SDS011;55632;51.962;16.116;2023-06-22T11:49:45;3.10;;;2.80;;
68647;SDS011;55632;51.962;16.116;2023-06-22T11:54:46;3.50;;;2.90;;
68647;SDS011;55632;51.962;16.116;2023-06-22T11:59:47;4.95;;;3.00;;
68647;SDS011;55632;51.962;16.116;2023-06-22T12:04:50;8.65;;;3.20;;
68647;SDS011;55632;51.962;16.116;2023-06-22T12:09:52;3.70;;;3.03;;
68647;SDS011;55632;51.962;16.116;2023-06-22T12:14:53;3.67;;;3.13;;
68647;SDS011;55632;51.962;16.116;2023-06-22T12:19:54;3.67;;;2.80;;
68647;SDS011;55632;51.962;16.116;2023-06-22T12:24:55;3.33;;;3.03;;
68647;SDS011;55632;51.962;16.116;2023-06-22T12:29:56;3.58;;;3.10;;
68647;SDS011;55632;51.962;16.116;2023-06-22T12:35:03;6.32;;;3.38;;
68647;SDS011;55632;51.962;16.116;2023-06-22T12:40:12;4.43;;;3.10;;
68647;SDS011;55632;51.962;16.116;2023-06-22T12:45:15;4.60;;;2.92;;
68647;SDS011;55632;51.962;16.116;2023-06-22T12:50:16;2.95;;;2.58;;
68647;SDS011;55632;51.962;16.116;2023-06-22T12:55:17;4.45;;;2.53;;
68647;SDS011;55632;51.962;16.116;2023-06-22T13:00:18;4.63;;;2.65;;
68647;SDS011;55632;51.962;16.116;2023-06-22T13:05:20;4.88;;;2.90;;
68647;SDS011;55632;51.962;16.116;2023-06-22T13:10:23;5.35;;;3.10;;
68647;SDS011;55632;51.962;16.116;2023-06-22T13:15:24;4.60;;;2.90;;
68647;SDS011;55632;51.962;16.116;2023-06-22T13:20:25;3.10;;;2.80;;
68647;SDS011;55632;51.962;16.116;2023-06-22T13:25:26;6.28;;;3.13;;
68647;SDS011;55632;51.962;16.116;2023-06-22T13:30:27;5.63;;;3.22;;
68647;SDS011;55632;51.962;16.116;2023-06-22T13:35:28;6.10;;;3.15;;
68647;SDS011;55632;51.962;16.116;2023-06-22T13:40:29;3.70;;;3.00;;
68647;SDS011;55632;51.962;16.116;2023-06-22T13:45:35;4.68;;;2.67;;
68647;SDS011;55632;51.962;16.116;2023-06-22T13:50:38;3.47;;;2.95;;
68647;SDS011;55632;51.962;16.116;2023-06-22T13:55:39;3.30;;;3.00;;
68647;SDS011;55632;51.962;16.116;2023-06-22T14:00:40;11.38;;;3.40;;
68647;SDS011;55632;51.962;16.116;2023-06-22T14:05:41;3.45;;;2.97;;
68647;SDS011;55632;51.962;16.116;2023-06-22T14:10:48;3.70;;;2.92;;
68647;SDS011;55632;51.962;16.116;2023-06-22T14:15:54;4.10;;;3.05;;
68647;SDS011;55632;51.962;16.116;2023-06-22T14:20:55;3.65;;;2.97;;
68647;SDS011;55632;51.962;16.116;2023-06-22T14:25:56;3.65;;;3.10;;
68647;SDS011;55632;51.962;16.116;2023-06-22T14:30:59;3.25;;;2.70;;
68647;SDS011;55632;51.962;16.116;2023-06-22T14:36:05;4.15;;;2.92;;
68647;SDS011;55632;51.962;16.116;2023-06-22T14:41:10;4.60;;;3.10;;
68647;SDS011;55632;51.962;16.116;2023-06-22T14:46:11;3.63;;;3.22;;
68647;SDS011;55632;51.962;16.116;2023-06-22T14:51:15;13.55;;;6.47;;
68647;SDS011;55632;51.962;16.116;2023-06-22T14:56:16;21.92;;;9.95;;
68647;SDS011;55632;51.962;16.116;2023-06-22T15:01:17;3.97;;;3.33;;
68647;SDS011;55632;51.962;16.116;2023-06-22T15:06:18;3.40;;;3.10;;
68647;SDS011;55632;51.962;16.116;2023-06-22T15:11:19;4.78;;;3.42;;
68647;SDS011;55632;51.962;16.116;2023-06-22T15:16:20;3.88;;;3.22;;
68647;SDS011;55632;51.962;16.116;2023-06-22T15:21:21;3.63;;;3.28;;
68647;SDS011;55632;51.962;16.116;2023-06-22T15:26:22;3.53;;;3.20;;
68647;SDS011;55632;51.962;16.116;2023-06-22T15:31:26;3.60;;;2.90;;
68647;SDS011;55632;51.962;16.116;2023-06-22T15:36:28;6.05;;;3.60;;
68647;SDS011;55632;51.962;16.116;2023-06-22T15:41:28;6.60;;;3.90;;
68647;SDS011;55632;51.962;16.116;2023-06-22T15:46:30;10.07;;;3.00;;
68647;SDS011;55632;51.962;16.116;2023-06-22T20:04:01;9.43;;;5.85;;
68647;SDS011;55632;51.962;16.116;2023-06-22T20:09:04;14.10;;;6.28;;
68647;SDS011;55632;51.962;16.116;2023-06-22T20:14:06;16.67;;;7.25;;
68647;SDS011;55632;51.962;16.116;2023-06-22T20:19:07;10.48;;;7.38;;
68647;SDS011;55632;51.962;16.116;2023-06-22T20:24:14;16.80;;;6.38;;
68647;SDS011;55632;51.962;16.116;2023-06-22T20:34:26;9.60;;;6.43;;
68647;SDS011;55632;51.962;16.116;2023-06-22T20:39:27;8.18;;;5.97;;
68647;SDS011;55632;51.962;16.116;2023-06-22T20:44:27;11.20;;;5.35;;
68647;SDS011;55632;51.962;16.116;2023-06-22T20:49:28;11.80;;;6.47;;
68647;SDS011;55632;51.962;16.116;2023-06-22T20:54:29;10.23;;;6.00;;
68647;SDS011;55632;51.962;16.116;2023-06-22T20:59:30;16.40;;;12.70;;
68647;SDS011;55632;51.962;16.116;2023-06-22T21:04:31;13.57;;;8.05;;
68647;SDS011;55632;51.962;16.116;2023-06-22T21:09:31;13.00;;;7.20;;
68647;SDS011;55632;51.962;16.116;2023-06-22T21:14:32;7.78;;;5.18;;
68647;SDS011;55632;51.962;16.116;2023-06-22T21:19:33;9.23;;;4.68;;
68647;SDS011;55632;51.962;16.116;2023-06-22T21:24:34;9.02;;;5.78;;
68647;SDS011;55632;51.962;16.116;2023-06-22T21:29:35;14.82;;;6.97;;
68647;SDS011;55632;51.962;16.116;2023-06-22T21:34:35;16.80;;;8.18;;
68647;SDS011;55632;51.962;16.116;2023-06-22T21:39:36;9.05;;;6.38;;
68647;SDS011;55632;51.962;16.116;2023-06-22T21:44:37;6.72;;;4.43;;
68647;SDS011;55632;51.962;16.116;2023-06-22T21:49:38;5.70;;;3.83;;
68647;SDS011;55632;51.962;16.116;2023-06-22T21:54:39;6.05;;;3.55;;
68647;SDS011;55632;51.962;16.116;2023-06-22T21:59:40;6.18;;;3.80;;
68647;SDS011;55632;51.962;16.116;2023-06-22T22:04:41;6.53;;;3.75;;
68647;SDS011;55632;51.962;16.116;2023-06-22T22:09:42;8.70;;;4.75;;
68647;SDS011;55632;51.962;16.116;2023-06-22T22:14:43;6.22;;;3.67;;
68647;SDS011;55632;51.962;16.116;2023-06-22T22:19:46;8.95;;;5.07;;
68647;SDS011;55632;51.962;16.116;2023-06-22T22:24:48;8.38;;;4.63;;
68647;SDS011;55632;51.962;16.116;2023-06-22T22:29:50;8.23;;;4.47;;
68647;SDS011;55632;51.962;16.116;2023-06-22T22:34:52;6.05;;;3.72;;
68647;SDS011;55632;51.962;16.116;2023-06-22T22:39:53;8.73;;;4.53;;
68647;SDS011;55632;51.962;16.116;2023-06-22T22:44:54;7.53;;;3.90;;
68647;SDS011;55632;51.962;16.116;2023-06-22T22:49:55;5.97;;;3.58;;
68647;SDS011;55632;51.962;16.116;2023-06-22T22:54:56;5.18;;;4.03;;
68647;SDS011;55632;51.962;16.116;2023-06-22T23:00:00;6.85;;;3.60;;
68647;SDS011;55632;51.962;16.116;2023-06-22T23:05:02;4.68;;;3.33;;
68647;SDS011;55632;51.962;16.116;2023-06-22T23:10:04;4.43;;;3.33;;
68647;SDS011;55632;51.962;16.116;2023-06-22T23:15:09;7.32;;;3.40;;
68647;SDS011;55632;51.962;16.116;2023-06-22T23:20:10;3.85;;;3.20;;
68647;SDS011;55632;51.962;16.116;2023-06-22T23:25:19;4.03;;;3.45;;
68647;SDS011;55632;51.962;16.116;2023-06-22T23:30:20;4.55;;;3.45;;
68647;SDS011;55632;51.962;16.116;2023-06-22T23:35:21;4.35;;;3.38;;
68647;SDS011;55632;51.962;16.116;2023-06-22T23:40:22;3.50;;;3.20;;
68647;SDS011;55632;51.962;16.116;2023-06-22T23:45:26;3.78;;;3.38;;
68647;SDS011;55632;51.962;16.116;2023-06-22T23:50:27;6.88;;;3.45;;
68647;SDS011;55632;51.962;16.116;2023-06-22T23:55:27;4.50;;;3.58;;
